DAAG/ALG METAR and TAF weather

Enter ICAO airport designator
Station Type Date Time Source
DAAG METAR 2020/01/22 12:00 UTC NOAA

DAAG 221200Z 16006KT 120V200 7000 NSC 20/05 Q1017


Station Type Date Time Source
DAAG Decoded METAR 2020/01/22 12:00 UTC NOAA

Dar-El-Beida, Algeria (DAAG) 36-43N 003-15E 25M
Jan 22, 2020 - 07:00 AM EST / 2020.01.22 1200 UTC
Wind: from the SSE (160 degrees) at 7 MPH (6 KT) (direction variable):0
Visibility: 4 mile(s):0
Temperature: 68 F (20 C)
Dew Point: 41 F (5 C)
Relative Humidity: 37%
Pressure (altimeter): 30.03 in. Hg (1017 hPa)
ob: DAAG 221200Z 16006KT 120V200 7000 NSC 20/05 Q1017
cycle: 12

Station Type Date Time Source
DAAG TAF 2020/01/22 12:33 UTC NOAA

TAF TAF DAAG 221100Z 2212/2312 17010KT 7000 FEW026 SCT100 PROB30
TEMPO 2212/2215 5000 HZ PROB40 2216/2224 FEW030CB PROB30
TEMPO 2218/2223 5000 -RA FEW023CB
BECMG 2220/2223 25010KT

Example: see airport list